sensor_id;sensor_type;location;lat;lon;timestamp;pressure;altitude;pressure_sealevel;temperature;humidity
11648;BME280;5880;52.342;9.662;2022-09-21T00:01:29;101948.56;;;15.51;53.09
11648;BME280;5880;52.342;9.662;2022-09-21T00:03:58;101941.84;;;15.47;53.06
11648;BME280;5880;52.342;9.662;2022-09-21T00:06:27;101939.31;;;15.45;53.43
11648;BME280;5880;52.342;9.662;2022-09-21T00:08:54;101940.63;;;15.43;53.05
11648;BME280;5880;52.342;9.662;2022-09-21T00:11:28;101943.38;;;15.43;53.06
11648;BME280;5880;52.342;9.662;2022-09-21T00:13:58;101938.34;;;15.39;52.92
11648;BME280;5880;52.342;9.662;2022-09-21T00:16:26;101938.69;;;15.31;52.83
11648;BME280;5880;52.342;9.662;2022-09-21T00:18:52;101938.69;;;15.31;53.02
11648;BME280;5880;52.342;9.662;2022-09-21T00:21:18;101934.22;;;15.30;52.98
11648;BME280;5880;52.342;9.662;2022-09-21T00:23:45;101945.25;;;15.30;53.12
11648;BME280;5880;52.342;9.662;2022-09-21T00:26:14;101947.78;;;15.32;53.07
11648;BME280;5880;52.342;9.662;2022-09-21T00:28:40;101939.38;;;15.27;53.12
11648;BME280;5880;52.342;9.662;2022-09-21T00:31:13;101948.69;;;15.26;52.96
11648;BME280;5880;52.342;9.662;2022-09-21T00:33:41;101948.94;;;15.24;53.08
11648;BME280;5880;52.342;9.662;2022-09-21T00:36:14;101951.44;;;15.26;53.11
11648;BME280;5880;52.342;9.662;2022-09-21T00:38:42;101953.59;;;15.24;52.99
11648;BME280;5880;52.342;9.662;2022-09-21T00:41:09;101943.72;;;15.16;52.80
11648;BME280;5880;52.342;9.662;2022-09-21T00:43:43;101955.16;;;15.19;52.59
11648;BME280;5880;52.342;9.662;2022-09-21T00:46:26;101961.34;;;15.15;52.68
11648;BME280;5880;52.342;9.662;2022-09-21T00:48:54;101958.19;;;15.11;52.53
11648;BME280;5880;52.342;9.662;2022-09-21T00:51:21;101954.47;;;15.06;52.75
11648;BME280;5880;52.342;9.662;2022-09-21T00:54:00;101958.03;;;15.06;52.83
11648;BME280;5880;52.342;9.662;2022-09-21T00:56:28;101953.69;;;14.98;52.65
11648;BME280;5880;52.342;9.662;2022-09-21T00:58:54;101957.91;;;15.01;52.65
11648;BME280;5880;52.342;9.662;2022-09-21T01:01:21;101960.47;;;14.96;52.51
11648;BME280;5880;52.342;9.662;2022-09-21T01:03:51;101957.34;;;14.92;52.51
11648;BME280;5880;52.342;9.662;2022-09-21T01:06:20;101966.22;;;14.94;52.60
11648;BME280;5880;52.342;9.662;2022-09-21T01:08:50;101970.28;;;14.92;52.59
11648;BME280;5880;52.342;9.662;2022-09-21T01:15:19;101973.78;;;14.81;52.49
11648;BME280;5880;52.342;9.662;2022-09-21T01:18:11;101967.53;;;14.73;52.42
11648;BME280;5880;52.342;9.662;2022-09-21T01:24:11;101972.00;;;14.68;52.47
11648;BME280;5880;52.342;9.662;2022-09-21T01:29:29;101970.53;;;14.65;52.35
11648;BME280;5880;52.342;9.662;2022-09-21T01:32:13;101978.44;;;14.62;52.44
11648;BME280;5880;52.342;9.662;2022-09-21T01:35:19;101979.72;;;14.59;52.43
11648;BME280;5880;52.342;9.662;2022-09-21T01:37:58;101981.25;;;14.55;52.68
11648;BME280;5880;52.342;9.662;2022-09-21T01:40:41;101982.31;;;14.54;52.49
11648;BME280;5880;52.342;9.662;2022-09-21T01:43:13;101975.28;;;14.51;52.50
11648;BME280;5880;52.342;9.662;2022-09-21T01:45:48;101975.13;;;14.46;52.41
11648;BME280;5880;52.342;9.662;2022-09-21T01:48:20;101990.13;;;14.50;52.47
11648;BME280;5880;52.342;9.662;2022-09-21T01:50:53;101985.72;;;14.49;52.68
11648;BME280;5880;52.342;9.662;2022-09-21T01:53:30;101984.00;;;14.48;52.37
11648;BME280;5880;52.342;9.662;2022-09-21T01:56:05;101993.34;;;14.47;52.50
11648;BME280;5880;52.342;9.662;2022-09-21T01:58:46;101976.44;;;14.44;52.34
11648;BME280;5880;52.342;9.662;2022-09-21T02:01:19;101979.44;;;14.42;52.35
11648;BME280;5880;52.342;9.662;2022-09-21T02:03:58;101973.53;;;14.39;52.41
11648;BME280;5880;52.342;9.662;2022-09-21T02:06:27;101976.50;;;14.37;52.44
11648;BME280;5880;52.342;9.662;2022-09-21T02:08:55;101983.91;;;14.36;52.52
11648;BME280;5880;52.342;9.662;2022-09-21T02:11:22;101983.91;;;14.36;52.49
11648;BME280;5880;52.342;9.662;2022-09-21T02:13:52;101983.75;;;14.31;52.43
11648;BME280;5880;52.342;9.662;2022-09-21T02:16:30;101992.38;;;14.35;52.29
11648;BME280;5880;52.342;9.662;2022-09-21T02:19:17;101982.66;;;14.32;52.44
11648;BME280;5880;52.342;9.662;2022-09-21T02:22:01;101980.38;;;14.29;52.46
11648;BME280;5880;52.342;9.662;2022-09-21T02:24:42;101984.41;;;14.27;52.45
11648;BME280;5880;52.342;9.662;2022-09-21T02:27:22;101970.09;;;14.18;52.43
11648;BME280;5880;52.342;9.662;2022-09-21T02:30:15;101979.38;;;14.24;52.34
11648;BME280;5880;52.342;9.662;2022-09-21T02:35:38;101978.38;;;14.11;52.41
11648;BME280;5880;52.342;9.662;2022-09-21T02:38:39;101981.53;;;14.15;52.45
11648;BME280;5880;52.342;9.662;2022-09-21T02:41:32;101982.84;;;14.12;52.40
11648;BME280;5880;52.342;9.662;2022-09-21T02:44:24;101980.53;;;14.09;52.59
11648;BME280;5880;52.342;9.662;2022-09-21T02:47:06;101981.59;;;14.08;52.43
11648;BME280;5880;52.342;9.662;2022-09-21T02:49:40;101978.22;;;14.06;52.39
11648;BME280;5880;52.342;9.662;2022-09-21T02:52:15;101978.22;;;14.06;52.30
11648;BME280;5880;52.342;9.662;2022-09-21T02:54:45;101989.47;;;14.05;52.31
11648;BME280;5880;52.342;9.662;2022-09-21T02:57:16;101980.38;;;13.98;52.30
11648;BME280;5880;52.342;9.662;2022-09-21T02:59:43;101981.25;;;13.98;52.30
11648;BME280;5880;52.342;9.662;2022-09-21T03:02:10;101983.13;;;13.98;52.31
11648;BME280;5880;52.342;9.662;2022-09-21T03:04:39;101981.69;;;13.95;52.25
11648;BME280;5880;52.342;9.662;2022-09-21T03:07:07;101979.59;;;13.90;52.24
11648;BME280;5880;52.342;9.662;2022-09-21T03:09:32;101981.50;;;13.90;52.20
11648;BME280;5880;52.342;9.662;2022-09-21T03:11:58;101982.13;;;13.92;52.18
11648;BME280;5880;52.342;9.662;2022-09-21T03:14:24;101973.94;;;13.85;52.29
11648;BME280;5880;52.342;9.662;2022-09-21T03:16:49;101982.63;;;13.82;52.28
11648;BME280;5880;52.342;9.662;2022-09-21T03:19:15;101991.91;;;13.81;52.09
11648;BME280;5880;52.342;9.662;2022-09-21T03:21:41;101983.91;;;13.80;52.19
11648;BME280;5880;52.342;9.662;2022-09-21T03:24:07;101989.41;;;13.80;52.01
11648;BME280;5880;52.342;9.662;2022-09-21T03:26:33;102001.44;;;13.79;52.18
11648;BME280;5880;52.342;9.662;2022-09-21T03:29:01;101996.81;;;13.79;52.20
11648;BME280;5880;52.342;9.662;2022-09-21T03:31:28;102008.00;;;13.78;52.13
11648;BME280;5880;52.342;9.662;2022-09-21T03:33:54;102003.81;;;13.75;52.10
11648;BME280;5880;52.342;9.662;2022-09-21T03:36:19;102001.94;;;13.69;52.21
11648;BME280;5880;52.342;9.662;2022-09-21T03:38:45;102001.50;;;13.72;52.10
11648;BME280;5880;52.342;9.662;2022-09-21T03:41:11;101995.38;;;13.70;52.17
11648;BME280;5880;52.342;9.662;2022-09-21T03:43:38;101997.72;;;13.66;52.17
11648;BME280;5880;52.342;9.662;2022-09-21T03:46:04;102009.34;;;13.68;52.28
11648;BME280;5880;52.342;9.662;2022-09-21T03:48:30;101997.72;;;13.66;52.35
11648;BME280;5880;52.342;9.662;2022-09-21T03:50:57;101995.41;;;13.63;52.34
11648;BME280;5880;52.342;9.662;2022-09-21T03:53:22;102002.59;;;13.64;52.37
11648;BME280;5880;52.342;9.662;2022-09-21T03:55:48;101989.50;;;13.60;52.33
11648;BME280;5880;52.342;9.662;2022-09-21T03:58:14;102007.03;;;13.65;52.34
11648;BME280;5880;52.342;9.662;2022-09-21T04:00:40;101995.88;;;13.60;52.30
11648;BME280;5880;52.342;9.662;2022-09-21T04:03:07;102007.69;;;13.61;52.36
11648;BME280;5880;52.342;9.662;2022-09-21T04:05:33;102001.94;;;13.62;52.43
11648;BME280;5880;52.342;9.662;2022-09-21T04:07:58;101996.28;;;13.57;52.47
11648;BME280;5880;52.342;9.662;2022-09-21T04:10:26;102011.28;;;13.61;52.48
11648;BME280;5880;52.342;9.662;2022-09-21T04:12:59;102016.13;;;13.59;52.22
11648;BME280;5880;52.342;9.662;2022-09-21T04:15:25;102006.88;;;13.54;52.08
11648;BME280;5880;52.342;9.662;2022-09-21T04:17:52;102005.41;;;13.51;52.18
11648;BME280;5880;52.342;9.662;2022-09-21T04:20:18;101999.28;;;13.49;52.12
11648;BME280;5880;52.342;9.662;2022-09-21T04:22:44;102015.34;;;13.52;52.02
11648;BME280;5880;52.342;9.662;2022-09-21T04:25:12;102004.56;;;13.50;51.98
11648;BME280;5880;52.342;9.662;2022-09-21T04:27:38;102000.16;;;13.43;51.92
11648;BME280;5880;52.342;9.662;2022-09-21T04:30:05;102011.78;;;13.45;52.04
11648;BME280;5880;52.342;9.662;2022-09-21T04:32:31;102006.94;;;13.40;51.73
11648;BME280;5880;52.342;9.662;2022-09-21T04:34:57;102007.13;;;13.39;51.99
11648;BME280;5880;52.342;9.662;2022-09-21T04:37:23;102000.63;;;13.33;51.96
11648;BME280;5880;52.342;9.662;2022-09-21T04:39:48;102005.28;;;13.33;51.92
11648;BME280;5880;52.342;9.662;2022-09-21T04:42:14;102018.78;;;13.34;51.87
11648;BME280;5880;52.342;9.662;2022-09-21T04:44:40;102021.97;;;13.31;51.88
11648;BME280;5880;52.342;9.662;2022-09-21T04:47:06;102013.34;;;13.27;51.92
11648;BME280;5880;52.342;9.662;2022-09-21T04:49:31;102017.75;;;13.28;51.84
11648;BME280;5880;52.342;9.662;2022-09-21T04:51:57;102023.66;;;13.25;51.93
11648;BME280;5880;52.342;9.662;2022-09-21T04:54:23;102019.22;;;13.18;51.98
11648;BME280;5880;52.342;9.662;2022-09-21T04:56:49;102031.66;;;13.20;51.89
11648;BME280;5880;52.342;9.662;2022-09-21T04:59:14;102034.41;;;13.20;51.92
11648;BME280;5880;52.342;9.662;2022-09-21T05:01:40;102028.31;;;13.18;52.19
11648;BME280;5880;52.342;9.662;2022-09-21T05:04:05;102031.47;;;13.15;51.91
11648;BME280;5880;52.342;9.662;2022-09-21T05:06:33;102028.34;;;13.12;52.02
11648;BME280;5880;52.342;9.662;2022-09-21T05:08:59;102035.06;;;13.16;52.10
11648;BME280;5880;52.342;9.662;2022-09-21T05:11:43;102041.81;;;13.13;52.19
11648;BME280;5880;52.342;9.662;2022-09-21T05:14:09;102036.34;;;13.13;52.31
11648;BME280;5880;52.342;9.662;2022-09-21T05:16:36;102037.41;;;13.12;52.24
11648;BME280;5880;52.342;9.662;2022-09-21T05:19:02;102039.31;;;13.12;52.40
11648;BME280;5880;52.342;9.662;2022-09-21T05:21:28;102043.97;;;13.11;52.09
11648;BME280;5880;52.342;9.662;2022-09-21T05:23:56;102038.06;;;13.07;52.34
11648;BME280;5880;52.342;9.662;2022-09-21T05:26:22;102035.75;;;13.04;52.31
11648;BME280;5880;52.342;9.662;2022-09-21T05:28:48;102031.94;;;13.05;52.33
11648;BME280;5880;52.342;9.662;2022-09-21T05:31:30;102046.72;;;13.11;52.10
11648;BME280;5880;52.342;9.662;2022-09-21T05:34:26;102049.03;;;13.07;52.23
11648;BME280;5880;52.342;9.662;2022-09-21T05:39:45;102048.19;;;13.00;52.35
11648;BME280;5880;52.342;9.662;2022-09-21T05:42:11;102054.31;;;13.02;52.22
11648;BME280;5880;52.342;9.662;2022-09-21T05:44:37;102051.16;;;12.99;52.17
11648;BME280;5880;52.342;9.662;2022-09-21T05:47:23;102055.16;;;13.03;52.21
11648;BME280;5880;52.342;9.662;2022-09-21T05:50:24;102058.09;;;13.01;52.28
11648;BME280;5880;52.342;9.662;2022-09-21T05:55:54;102069.31;;;13.00;52.52
11648;BME280;5880;52.342;9.662;2022-09-21T06:01:19;102070.78;;;13.02;52.70
11648;BME280;5880;52.342;9.662;2022-09-21T06:03:52;102069.09;;;13.01;52.77
11648;BME280;5880;52.342;9.662;2022-09-21T06:06:20;102076.03;;;13.04;52.74
11648;BME280;5880;52.342;9.662;2022-09-21T06:08:45;102081.75;;;13.09;53.02
11648;BME280;5880;52.342;9.662;2022-09-21T06:11:12;102085.75;;;13.13;53.03
11648;BME280;5880;52.342;9.662;2022-09-21T06:13:38;102088.91;;;13.17;53.23
11648;BME280;5880;52.342;9.662;2022-09-21T06:16:06;102086.56;;;13.20;53.25
11648;BME280;5880;52.342;9.662;2022-09-21T06:18:39;102088.09;;;13.23;53.27
11648;BME280;5880;52.342;9.662;2022-09-21T06:21:07;102093.56;;;13.29;53.37
11648;BME280;5880;52.342;9.662;2022-09-21T06:23:34;102082.97;;;13.26;53.45
11648;BME280;5880;52.342;9.662;2022-09-21T06:25:59;102090.81;;;13.36;53.60
11648;BME280;5880;52.342;9.662;2022-09-21T06:28:25;102091.00;;;13.41;53.89
11648;BME280;5880;52.342;9.662;2022-09-21T06:30:54;102086.56;;;13.47;54.02
11648;BME280;5880;52.342;9.662;2022-09-21T06:33:20;102078.72;;;13.50;54.06
11648;BME280;5880;52.342;9.662;2022-09-21T06:36:06;102087.56;;;13.59;54.08
11648;BME280;5880;52.342;9.662;2022-09-21T06:38:31;102087.75;;;13.64;54.23
11648;BME280;5880;52.342;9.662;2022-09-21T06:41:03;102087.72;;;13.71;54.23
11648;BME280;5880;52.342;9.662;2022-09-21T06:43:30;102090.91;;;13.75;54.43
11648;BME280;5880;52.342;9.662;2022-09-21T06:45:59;102079.66;;;13.76;54.47
11648;BME280;5880;52.342;9.662;2022-09-21T06:48:26;102086.84;;;13.84;54.73
11648;BME280;5880;52.342;9.662;2022-09-21T06:51:01;102080.25;;;13.91;54.77
11648;BME280;5880;52.342;9.662;2022-09-21T06:53:29;102098.38;;;13.99;54.87
11648;BME280;5880;52.342;9.662;2022-09-21T06:56:09;102097.28;;;14.07;54.78
11648;BME280;5880;52.342;9.662;2022-09-21T06:58:35;102102.56;;;14.08;54.93
11648;BME280;5880;52.342;9.662;2022-09-21T07:01:11;102101.91;;;14.13;54.99
11648;BME280;5880;52.342;9.662;2022-09-21T07:03:39;102104.63;;;14.20;55.29
11648;BME280;5880;52.342;9.662;2022-09-21T07:06:07;102095.09;;;14.22;55.38
11648;BME280;5880;52.342;9.662;2022-09-21T07:08:33;102085.53;;;14.25;55.38
11648;BME280;5880;52.342;9.662;2022-09-21T07:11:00;102105.56;;;14.39;55.40
11648;BME280;5880;52.342;9.662;2022-09-21T07:13:28;102094.50;;;14.45;55.48
11648;BME280;5880;52.342;9.662;2022-09-21T07:15:54;102098.50;;;14.49;55.52
11648;BME280;5880;52.342;9.662;2022-09-21T07:18:21;102107.59;;;14.56;55.51
11648;BME280;5880;52.342;9.662;2022-09-21T07:20:47;102098.41;;;14.63;55.51
11648;BME280;5880;52.342;9.662;2022-09-21T07:23:17;102104.72;;;14.70;55.73
11648;BME280;5880;52.342;9.662;2022-09-21T07:25:46;102101.53;;;14.73;55.57
11648;BME280;5880;52.342;9.662;2022-09-21T07:28:17;102104.22;;;14.80;55.93
11648;BME280;5880;52.342;9.662;2022-09-21T07:30:43;102104.16;;;14.86;55.97
11648;BME280;5880;52.342;9.662;2022-09-21T07:33:10;102107.94;;;14.92;55.87
11648;BME280;5880;52.342;9.662;2022-09-21T07:35:35;102102.19;;;14.93;55.91
11648;BME280;5880;52.342;9.662;2022-09-21T07:38:05;102105.50;;;15.02;56.02
11648;BME280;5880;52.342;9.662;2022-09-21T07:40:33;102109.66;;;15.11;56.23
11648;BME280;5880;52.342;9.662;2022-09-21T07:43:00;102113.81;;;15.20;56.07
11648;BME280;5880;52.342;9.662;2022-09-21T07:45:28;102110.16;;;15.27;56.08
11648;BME280;5880;52.342;9.662;2022-09-21T07:48:00;102105.00;;;15.30;56.18
11648;BME280;5880;52.342;9.662;2022-09-21T07:50:26;102106.88;;;15.36;56.33
11648;BME280;5880;52.342;9.662;2022-09-21T07:52:51;102117.56;;;15.45;56.27
11648;BME280;5880;52.342;9.662;2022-09-21T07:55:17;102108.88;;;15.48;56.28
11648;BME280;5880;52.342;9.662;2022-09-21T07:57:43;102113.44;;;15.54;56.46
11648;BME280;5880;52.342;9.662;2022-09-21T08:00:27;102114.44;;;15.59;56.35
11648;BME280;5880;52.342;9.662;2022-09-21T08:02:57;102115.22;;;15.67;56.31
11648;BME280;5880;52.342;9.662;2022-09-21T08:05:23;102116.84;;;15.74;56.45
11648;BME280;5880;52.342;9.662;2022-09-21T08:07:48;102101.97;;;15.75;56.47
11648;BME280;5880;52.342;9.662;2022-09-21T08:10:14;102111.88;;;15.83;56.52
11648;BME280;5880;52.342;9.662;2022-09-21T08:12:40;102110.56;;;15.86;56.42
11648;BME280;5880;52.342;9.662;2022-09-21T08:15:08;102115.38;;;15.90;56.36
11648;BME280;5880;52.342;9.662;2022-09-21T08:17:37;102109.38;;;15.93;56.66
11648;BME280;5880;52.342;9.662;2022-09-21T08:20:02;102118.41;;;16.00;56.52
11648;BME280;5880;52.342;9.662;2022-09-21T08:22:28;102115.44;;;16.02;56.56
11648;BME280;5880;52.342;9.662;2022-09-21T08:24:54;102112.81;;;16.07;56.46
11648;BME280;5880;52.342;9.662;2022-09-21T08:27:20;102107.28;;;16.07;56.63
11648;BME280;5880;52.342;9.662;2022-09-21T08:29:46;102103.97;;;16.17;56.54
11648;BME280;5880;52.342;9.662;2022-09-21T08:32:12;102104.59;;;16.19;56.66
11648;BME280;5880;52.342;9.662;2022-09-21T08:34:37;102108.94;;;16.27;56.73
11648;BME280;5880;52.342;9.662;2022-09-21T08:37:03;102101.66;;;16.32;56.78
11648;BME280;5880;52.342;9.662;2022-09-21T08:39:29;102119.56;;;16.41;56.67
11648;BME280;5880;52.342;9.662;2022-09-21T08:42:15;102101.44;;;16.45;56.71
11648;BME280;5880;52.342;9.662;2022-09-21T08:45:02;102106.84;;;16.52;56.61
11648;BME280;5880;52.342;9.662;2022-09-21T08:47:44;102105.06;;;16.58;56.59
11648;BME280;5880;52.342;9.662;2022-09-21T08:50:49;102111.31;;;16.65;56.64
11648;BME280;5880;52.342;9.662;2022-09-21T08:53:24;102117.19;;;16.68;56.67
11648;BME280;5880;52.342;9.662;2022-09-21T08:55:55;102107.97;;;16.75;56.80
11648;BME280;5880;52.342;9.662;2022-09-21T08:58:27;102108.13;;;16.80;56.76
11648;BME280;5880;52.342;9.662;2022-09-21T09:04:27;102105.63;;;16.90;56.74
11648;BME280;5880;52.342;9.662;2022-09-21T09:07:46;102113.34;;;17.00;56.41
11648;BME280;5880;52.342;9.662;2022-09-21T09:16:30;102115.84;;;17.13;56.37
11648;BME280;5880;52.342;9.662;2022-09-21T09:19:32;102130.63;;;17.19;56.78
11648;BME280;5880;52.342;9.662;2022-09-21T09:22:06;102118.38;;;17.26;56.91
11648;BME280;5880;52.342;9.662;2022-09-21T09:24:49;102124.22;;;17.42;56.92
11648;BME280;5880;52.342;9.662;2022-09-21T09:27:34;102122.78;;;17.51;56.85
11648;BME280;5880;52.342;9.662;2022-09-21T09:30:17;102126.13;;;17.65;56.67
11648;BME280;5880;52.342;9.662;2022-09-21T09:33:21;102114.19;;;17.76;56.56
11648;BME280;5880;52.342;9.662;2022-09-21T09:38:39;102127.75;;;18.01;55.74
11648;BME280;5880;52.342;9.662;2022-09-21T09:48:31;102138.31;;;18.33;55.74
11648;BME280;5880;52.342;9.662;2022-09-21T09:51:02;102128.81;;;18.74;55.32
11648;BME280;5880;52.342;9.662;2022-09-21T09:53:27;102127.38;;;19.39;54.84
11648;BME280;5880;52.342;9.662;2022-09-21T09:55:56;102127.22;;;20.12;53.50
11648;BME280;5880;52.342;9.662;2022-09-21T09:58:43;102121.63;;;20.89;53.54
11648;BME280;5880;52.342;9.662;2022-09-21T10:01:45;102127.16;;;21.68;53.25
11648;BME280;5880;52.342;9.662;2022-09-21T10:04:14;102122.38;;;22.27;51.94
11648;BME280;5880;52.342;9.662;2022-09-21T10:06:41;102122.69;;;22.92;51.55
11648;BME280;5880;52.342;9.662;2022-09-21T10:12:21;102117.22;;;24.32;50.61
11648;BME280;5880;52.342;9.662;2022-09-21T10:14:55;102113.50;;;24.87;49.28
11648;BME280;5880;52.342;9.662;2022-09-21T10:17:24;102109.69;;;25.36;48.13
11648;BME280;5880;52.342;9.662;2022-09-21T10:19:59;102107.75;;;25.79;47.54
11648;BME280;5880;52.342;9.662;2022-09-21T10:22:28;102112.38;;;26.13;46.94
11648;BME280;5880;52.342;9.662;2022-09-21T10:24:55;102109.72;;;26.03;47.24
11648;BME280;5880;52.342;9.662;2022-09-21T10:27:34;102114.56;;;25.73;47.10
11648;BME280;5880;52.342;9.662;2022-09-21T10:30:01;102108.69;;;25.26;47.54
11648;BME280;5880;52.342;9.662;2022-09-21T10:32:27;102103.50;;;24.80;47.90
11648;BME280;5880;52.342;9.662;2022-09-21T10:37:43;102092.06;;;23.88;47.89
11648;BME280;5880;52.342;9.662;2022-09-21T10:42:42;102104.56;;;23.20;48.72
11648;BME280;5880;52.342;9.662;2022-09-21T10:45:25;102101.78;;;22.89;48.60
11648;BME280;5880;52.342;9.662;2022-09-21T10:48:06;102097.91;;;22.60;48.65
11648;BME280;5880;52.342;9.662;2022-09-21T10:50:42;102103.47;;;22.34;48.63
11648;BME280;5880;52.342;9.662;2022-09-21T10:55:39;102101.66;;;21.92;48.00
11648;BME280;5880;52.342;9.662;2022-09-21T10:58:11;102105.75;;;21.74;48.00
11648;BME280;5880;52.342;9.662;2022-09-21T11:00:50;102102.59;;;21.55;48.06
11648;BME280;5880;52.342;9.662;2022-09-21T11:03:46;102095.81;;;21.36;48.04
11648;BME280;5880;52.342;9.662;2022-09-21T11:06:45;102093.19;;;21.19;48.26
11648;BME280;5880;52.342;9.662;2022-09-21T11:09:40;102089.47;;;21.03;47.96
11648;BME280;5880;52.342;9.662;2022-09-21T11:12:41;102090.50;;;20.92;47.76
11648;BME280;5880;52.342;9.662;2022-09-21T11:21:29;102098.59;;;20.61;47.94
11648;BME280;5880;52.342;9.662;2022-09-21T11:27:16;102089.88;;;20.52;48.37
11648;BME280;5880;52.342;9.662;2022-09-21T11:29:54;102092.13;;;20.55;48.40
11648;BME280;5880;52.342;9.662;2022-09-21T11:35:46;102091.06;;;20.56;48.69
11648;BME280;5880;52.342;9.662;2022-09-21T11:38:57;102080.19;;;20.55;48.67
11648;BME280;5880;52.342;9.662;2022-09-21T11:41:48;102084.69;;;20.56;48.35
11648;BME280;5880;52.342;9.662;2022-09-21T11:50:29;102072.91;;;20.49;48.21
11648;BME280;5880;52.342;9.662;2022-09-21T11:53:17;102069.56;;;20.47;48.10
11648;BME280;5880;52.342;9.662;2022-09-21T11:56:37;102081.25;;;20.49;47.99
11648;BME280;5880;52.342;9.662;2022-09-21T11:59:44;102072.34;;;20.47;48.19
11648;BME280;5880;52.342;9.662;2022-09-21T12:09:42;102057.59;;;20.46;48.20
11648;BME280;5880;52.342;9.662;2022-09-21T12:12:30;102057.66;;;20.51;47.86
11648;BME280;5880;52.342;9.662;2022-09-21T12:15:15;102062.16;;;20.57;47.79
11648;BME280;5880;52.342;9.662;2022-09-21T12:18:02;102050.81;;;20.59;48.08
11648;BME280;5880;52.342;9.662;2022-09-21T12:20:41;102058.38;;;20.69;47.85
11648;BME280;5880;52.342;9.662;2022-09-21T12:23:18;102057.25;;;20.70;47.55
11648;BME280;5880;52.342;9.662;2022-09-21T12:25:51;102052.03;;;20.73;47.53
11648;BME280;5880;52.342;9.662;2022-09-21T12:28:35;102056.78;;;20.78;47.24
11648;BME280;5880;52.342;9.662;2022-09-21T12:31:13;102054.56;;;20.80;47.14
11648;BME280;5880;52.342;9.662;2022-09-21T12:34:17;102049.59;;;20.82;47.55
11648;BME280;5880;52.342;9.662;2022-09-21T12:37:13;102051.53;;;20.81;47.23
11648;BME280;5880;52.342;9.662;2022-09-21T12:39:54;102040.38;;;20.76;47.43
11648;BME280;5880;52.342;9.662;2022-09-21T12:42:49;102050.44;;;20.82;47.20
11648;BME280;5880;52.342;9.662;2022-09-21T12:45:31;102044.56;;;20.79;46.90
11648;BME280;5880;52.342;9.662;2022-09-21T12:48:23;102049.31;;;20.83;46.87
11648;BME280;5880;52.342;9.662;2022-09-21T12:50:59;102030.13;;;20.77;46.89
11648;BME280;5880;52.342;9.662;2022-09-21T12:53:31;102037.38;;;20.83;46.50
11648;BME280;5880;52.342;9.662;2022-09-21T12:56:32;102034.31;;;20.79;47.00
11648;BME280;5880;52.342;9.662;2022-09-21T12:59:34;102036.53;;;20.82;46.79
11648;BME280;5880;52.342;9.662;2022-09-21T13:02:23;102024.31;;;20.83;46.68
11648;BME280;5880;52.342;9.662;2022-09-21T13:05:16;102032.13;;;20.86;46.78
11648;BME280;5880;52.342;9.662;2022-09-21T13:07:58;102027.41;;;20.87;46.48
11648;BME280;5880;52.342;9.662;2022-09-21T13:13:00;102023.78;;;20.86;46.26
11648;BME280;5880;52.342;9.662;2022-09-21T13:15:40;102019.63;;;20.89;45.93
11648;BME280;5880;52.342;9.662;2022-09-21T13:18:25;102026.28;;;20.88;45.64
11648;BME280;5880;52.342;9.662;2022-09-21T13:20:53;102014.53;;;20.76;45.26
11648;BME280;5880;52.342;9.662;2022-09-21T13:23:35;102024.28;;;20.78;45.14
11648;BME280;5880;52.342;9.662;2022-09-21T13:26:09;102026.69;;;20.70;45.09
11648;BME280;5880;52.342;9.662;2022-09-21T13:36:41;102030.09;;;20.44;44.80
11648;BME280;5880;52.342;9.662;2022-09-21T13:41:34;102024.81;;;20.43;45.24
11648;BME280;5880;52.342;9.662;2022-09-21T13:44:38;102018.72;;;20.46;45.09
11648;BME280;5880;52.342;9.662;2022-09-21T13:47:07;102013.97;;;20.41;44.96
11648;BME280;5880;52.342;9.662;2022-09-21T13:49:42;101997.00;;;20.38;44.73
11648;BME280;5880;52.342;9.662;2022-09-21T13:52:35;102011.25;;;20.47;44.53
11648;BME280;5880;52.342;9.662;2022-09-21T13:55:06;102005.41;;;20.48;44.60
11648;BME280;5880;52.342;9.662;2022-09-21T13:57:49;102005.16;;;20.50;44.29
11648;BME280;5880;52.342;9.662;2022-09-21T14:05:44;101998.56;;;20.56;43.78
11648;BME280;5880;52.342;9.662;2022-09-21T14:10:50;101993.88;;;20.61;43.45
11648;BME280;5880;52.342;9.662;2022-09-21T14:13:36;101986.94;;;20.64;43.85
11648;BME280;5880;52.342;9.662;2022-09-21T14:18:54;101995.31;;;20.69;43.74
11648;BME280;5880;52.342;9.662;2022-09-21T14:21:21;101997.28;;;20.74;44.12
11648;BME280;5880;52.342;9.662;2022-09-21T14:29:43;102000.38;;;20.77;43.83
11648;BME280;5880;52.342;9.662;2022-09-21T14:32:17;101987.56;;;20.71;43.63
11648;BME280;5880;52.342;9.662;2022-09-21T14:34:48;101995.06;;;20.71;43.07
11648;BME280;5880;52.342;9.662;2022-09-21T14:37:39;101988.34;;;20.66;43.50
11648;BME280;5880;52.342;9.662;2022-09-21T14:40:33;101972.22;;;20.63;43.85
11648;BME280;5880;52.342;9.662;2022-09-21T14:43:09;101974.22;;;20.68;44.20
11648;BME280;5880;52.342;9.662;2022-09-21T14:54:54;101969.59;;;20.84;43.67
11648;BME280;5880;52.342;9.662;2022-09-21T14:58:15;101966.53;;;20.85;43.85
11648;BME280;5880;52.342;9.662;2022-09-21T15:00:46;101963.75;;;20.85;44.01
11648;BME280;5880;52.342;9.662;2022-09-21T15:05:52;101964.06;;;20.94;43.41
11648;BME280;5880;52.342;9.662;2022-09-21T15:12:11;101961.63;;;20.98;43.65
11648;BME280;5880;52.342;9.662;2022-09-21T15:15:17;101956.59;;;21.00;43.76
11648;BME280;5880;52.342;9.662;2022-09-21T15:17:56;101951.88;;;21.00;43.65
11648;BME280;5880;52.342;9.662;2022-09-21T15:20:26;101952.72;;;21.01;43.54
11648;BME280;5880;52.342;9.662;2022-09-21T15:22:59;101947.41;;;20.99;43.50
11648;BME280;5880;52.342;9.662;2022-09-21T15:25:29;101953.00;;;21.04;43.43
11648;BME280;5880;52.342;9.662;2022-09-21T15:27:56;101952.44;;;21.02;43.47
11648;BME280;5880;52.342;9.662;2022-09-21T15:30:26;101955.78;;;21.04;43.43
11648;BME280;5880;52.342;9.662;2022-09-21T15:32:56;101948.25;;;21.00;43.42
11648;BME280;5880;52.342;9.662;2022-09-21T15:35:34;101949.94;;;21.01;43.10
11648;BME280;5880;52.342;9.662;2022-09-21T15:38:00;101948.22;;;20.95;43.02
11648;BME280;5880;52.342;9.662;2022-09-21T15:40:35;101951.00;;;20.95;43.09